createdAt,value
2022-10-20T00:01:24.838Z,117.53
2022-10-20T00:03:53.201Z,115.43
2022-10-20T00:06:22.488Z,113.10
2022-10-20T00:08:50.347Z,120.77
2022-10-20T00:11:19.584Z,112.00
2022-10-20T00:13:50.166Z,115.37
2022-10-20T00:16:17.933Z,145.23
2022-10-20T00:18:45.922Z,153.63
2022-10-20T00:21:15.286Z,154.30
2022-10-20T00:23:42.972Z,149.40
2022-10-20T00:26:13.520Z,149.40
2022-10-20T00:28:41.361Z,157.50
2022-10-20T00:31:10.877Z,211.43
2022-10-20T00:33:38.600Z,153.33
2022-10-20T00:36:08.106Z,150.83
2022-10-20T00:38:36.251Z,146.53
2022-10-20T00:41:04.185Z,147.73
2022-10-20T00:43:47.221Z,145.17
2022-10-20T00:46:18.018Z,144.93
2022-10-20T00:48:48.504Z,154.23
2022-10-20T00:51:18.426Z,140.00
2022-10-20T00:53:47.044Z,152.83
2022-10-20T00:56:15.478Z,148.23
2022-10-20T00:58:43.604Z,154.37
2022-10-20T01:01:12.083Z,149.43
2022-10-20T01:03:46.319Z,142.23
2022-10-20T01:08:48.705Z,152.23
2022-10-20T01:11:19.861Z,154.47
2022-10-20T01:14:01.743Z,149.57
2022-10-20T01:16:36.195Z,154.90
2022-10-20T01:19:21.812Z,152.63
2022-10-20T01:22:11.129Z,150.50
2022-10-20T01:24:58.569Z,138.63
2022-10-20T01:27:33.428Z,146.27
2022-10-20T01:30:09.442Z,137.60
2022-10-20T01:32:45.134Z,139.37
2022-10-20T01:35:16.034Z,148.53
2022-10-20T01:37:49.626Z,153.30
2022-10-20T01:40:23.638Z,146.77
2022-10-20T01:42:53.955Z,191.70
2022-10-20T01:45:22.815Z,155.23
2022-10-20T01:47:51.467Z,152.10
2022-10-20T01:50:20.117Z,149.60
2022-10-20T01:52:48.296Z,155.83
2022-10-20T01:55:17.970Z,154.17
2022-10-20T01:58:01.156Z,153.20
2022-10-20T02:00:28.866Z,149.33
2022-10-20T02:03:28.561Z,140.03
2022-10-20T02:06:06.058Z,142.80
2022-10-20T02:08:38.492Z,153.47
2022-10-20T02:11:07.809Z,145.60
2022-10-20T02:13:38.565Z,140.27
2022-10-20T02:16:12.799Z,150.67
2022-10-20T02:18:42.255Z,151.07
2022-10-20T02:21:10.357Z,152.07
2022-10-20T02:23:40.773Z,152.23
2022-10-20T02:26:10.545Z,153.37
2022-10-20T02:28:40.362Z,156.87
2022-10-20T02:31:08.521Z,149.83
2022-10-20T02:33:37.062Z,157.23
2022-10-20T02:36:07.273Z,150.93
2022-10-20T02:38:35.325Z,151.57
2022-10-20T02:41:02.986Z,134.43
2022-10-20T02:43:30.615Z,154.07
2022-10-20T02:45:59.582Z,149.40
2022-10-20T02:48:27.237Z,144.40
2022-10-20T02:50:54.880Z,154.63
2022-10-20T02:53:22.551Z,152.87
2022-10-20T02:55:50.227Z,154.43
2022-10-20T02:58:17.865Z,150.20
2022-10-20T03:00:45.526Z,152.53
2022-10-20T03:03:14.540Z,154.53
2022-10-20T03:05:44.401Z,152.80
2022-10-20T03:08:12.261Z,151.40
2022-10-20T03:10:39.869Z,153.47
2022-10-20T03:13:07.578Z,152.20
2022-10-20T03:15:35.332Z,148.60
2022-10-20T03:18:02.998Z,140.10
2022-10-20T03:20:32.057Z,155.97
2022-10-20T03:22:59.709Z,151.63
2022-10-20T03:25:27.429Z,150.23
2022-10-20T03:27:55.441Z,151.20
2022-10-20T03:30:23.079Z,156.07
2022-10-20T03:32:50.735Z,152.00
2022-10-20T03:35:18.336Z,146.13
2022-10-20T03:37:47.325Z,154.77
2022-10-20T03:40:15.116Z,144.73
2022-10-20T03:42:42.770Z,146.77
2022-10-20T03:45:13.772Z,144.37
2022-10-20T03:47:43.964Z,152.70
2022-10-20T03:50:11.626Z,139.97
2022-10-20T03:52:39.680Z,149.27
2022-10-20T03:55:09.663Z,149.27
2022-10-20T03:57:37.810Z,143.53
2022-10-20T04:00:06.688Z,147.13
2022-10-20T04:02:36.358Z,149.20
2022-10-20T04:05:04.445Z,146.70
2022-10-20T04:07:32.177Z,152.47
2022-10-20T04:10:02.116Z,150.87
2022-10-20T04:12:31.712Z,152.43
2022-10-20T04:14:59.315Z,153.43
2022-10-20T04:17:27.024Z,150.80
2022-10-20T04:19:55.269Z,152.47
2022-10-20T04:22:22.894Z,140.47
2022-10-20T04:24:50.594Z,152.77
2022-10-20T04:27:18.246Z,142.63
2022-10-20T04:29:47.657Z,151.60
2022-10-20T04:32:15.404Z,150.87
2022-10-20T04:34:43.401Z,153.80
2022-10-20T04:37:11.085Z,150.20
2022-10-20T04:39:38.718Z,137.63
2022-10-20T04:42:06.454Z,151.33
2022-10-20T04:44:34.074Z,151.40
2022-10-20T04:47:03.044Z,147.97
2022-10-20T04:49:30.726Z,137.33
2022-10-20T04:52:00.990Z,143.87
2022-10-20T04:54:29.611Z,145.60
2022-10-20T04:56:57.362Z,149.47
2022-10-20T04:59:25.200Z,155.07
2022-10-20T05:01:52.904Z,149.47
2022-10-20T05:04:22.077Z,150.10
2022-10-20T05:06:50.008Z,152.57
2022-10-20T05:09:17.650Z,138.60
2022-10-20T05:11:45.319Z,152.77
2022-10-20T05:14:12.965Z,144.93
2022-10-20T05:16:40.644Z,145.77
2022-10-20T05:19:08.412Z,150.10
2022-10-20T05:21:37.433Z,149.07
2022-10-20T05:24:06.546Z,149.70
2022-10-20T05:26:37.327Z,151.60
2022-10-20T05:29:06.429Z,137.50
2022-10-20T05:31:37.738Z,152.77
2022-10-20T05:34:05.360Z,149.67
2022-10-20T05:36:33.147Z,149.03
2022-10-20T05:39:02.168Z,153.53
2022-10-20T05:41:33.506Z,151.07
2022-10-20T05:44:05.837Z,152.23
2022-10-20T05:46:34.890Z,149.07
2022-10-20T05:49:03.826Z,149.93
2022-10-20T05:51:34.965Z,147.93
2022-10-20T05:54:04.622Z,151.77
2022-10-20T05:56:33.594Z,147.97
2022-10-20T05:59:01.228Z,139.50
2022-10-20T06:01:39.535Z,154.23
2022-10-20T06:04:08.556Z,152.27
2022-10-20T06:06:36.762Z,152.07
2022-10-20T06:09:07.978Z,138.77
2022-10-20T06:11:39.248Z,152.77
2022-10-20T06:14:07.837Z,150.87
2022-10-20T06:16:35.533Z,148.33
2022-10-20T06:19:04.068Z,149.83
2022-10-20T06:21:34.510Z,148.67
2022-10-20T06:24:04.125Z,150.27
2022-10-20T06:26:36.262Z,146.47
2022-10-20T06:29:05.425Z,143.70
2022-10-20T06:31:34.096Z,148.37
2022-10-20T06:34:02.152Z,144.27
2022-10-20T06:36:30.207Z,152.47
2022-10-20T06:38:59.233Z,150.00
2022-10-20T06:41:28.204Z,140.87
2022-10-20T06:43:59.637Z,149.37
2022-10-20T06:46:28.350Z,148.00
2022-10-20T06:48:58.692Z,151.50
2022-10-20T06:51:27.136Z,153.23
2022-10-20T06:53:54.797Z,143.57
2022-10-20T06:56:23.924Z,141.03
2022-10-20T06:58:52.677Z,142.83
2022-10-20T07:01:23.711Z,144.50
2022-10-20T07:03:53.174Z,139.57
2022-10-20T07:06:22.119Z,144.63
2022-10-20T07:08:51.009Z,142.43
2022-10-20T07:11:19.853Z,143.10
2022-10-20T07:13:49.145Z,135.87
2022-10-20T07:16:18.839Z,139.07
2022-10-20T07:18:48.304Z,147.27
2022-10-20T07:21:17.679Z,137.97
2022-10-20T07:23:45.749Z,135.70
2022-10-20T07:26:15.313Z,136.40
2022-10-20T07:28:44.239Z,137.40
2022-10-20T07:31:13.968Z,127.33
2022-10-20T07:33:42.082Z,137.80
2022-10-20T07:36:15.564Z,131.37
2022-10-20T07:38:43.523Z,141.00
2022-10-20T07:41:11.672Z,133.67
2022-10-20T07:43:39.965Z,129.17
2022-10-20T07:46:08.527Z,136.43
2022-10-20T07:48:36.176Z,133.90
2022-10-20T07:51:19.268Z,128.13
2022-10-20T07:53:46.929Z,135.87
2022-10-20T07:56:15.268Z,134.90
2022-10-20T07:58:43.370Z,127.70
2022-10-20T08:01:11.418Z,133.10
2022-10-20T08:03:39.162Z,132.17
2022-10-20T08:06:07.420Z,131.90
2022-10-20T08:08:36.495Z,130.60
2022-10-20T08:11:04.661Z,127.37
2022-10-20T08:13:32.450Z,131.33
2022-10-20T08:16:01.813Z,128.23
2022-10-20T08:18:32.501Z,132.70
2022-10-20T08:21:07.745Z,130.73
2022-10-20T08:23:39.264Z,131.90
2022-10-20T08:26:10.739Z,132.73
2022-10-20T08:28:39.483Z,138.97
2022-10-20T08:31:08.602Z,133.10
2022-10-20T08:34:38.722Z,132.77
2022-10-20T08:37:06.394Z,130.63
2022-10-20T08:39:34.028Z,123.30
2022-10-20T08:42:08.507Z,132.03
2022-10-20T08:44:37.062Z,131.47
2022-10-20T08:47:06.565Z,133.67
2022-10-20T08:49:34.953Z,128.17
2022-10-20T08:52:04.749Z,131.07
2022-10-20T08:54:35.245Z,135.63
2022-10-20T08:57:02.966Z,131.83
2022-10-20T08:59:35.518Z,123.53
2022-10-20T09:02:07.562Z,123.97
2022-10-20T09:04:37.175Z,135.53
2022-10-20T09:07:12.318Z,132.07
2022-10-20T09:09:40.061Z,132.57
2022-10-20T09:12:10.043Z,130.00
2022-10-20T09:14:38.717Z,133.03
2022-10-20T09:17:09.157Z,134.73
2022-10-20T09:19:39.259Z,132.77
2022-10-20T09:22:08.568Z,135.53
2022-10-20T09:24:36.957Z,124.80
2022-10-20T09:27:21.013Z,136.77
2022-10-20T09:29:48.619Z,125.63
2022-10-20T09:35:19.988Z,136.27
2022-10-20T09:37:57.314Z,136.33
2022-10-20T09:40:26.258Z,153.73
2022-10-20T09:42:55.622Z,139.87
2022-10-20T09:45:24.655Z,137.83
2022-10-20T09:47:54.302Z,136.17
2022-10-20T09:50:27.039Z,128.63
2022-10-20T09:52:56.389Z,135.57
2022-10-20T09:55:28.857Z,138.73
2022-10-20T09:57:58.137Z,142.83
2022-10-20T10:00:38.830Z,128.50
2022-10-20T10:03:12.093Z,138.67
2022-10-20T10:05:39.733Z,139.27
2022-10-20T10:08:15.052Z,137.93
2022-10-20T10:10:45.093Z,136.53
2022-10-20T10:13:25.094Z,138.97
2022-10-20T10:16:01.029Z,138.23
2022-10-20T10:18:29.074Z,140.10
2022-10-20T10:21:02.170Z,138.03
2022-10-20T10:23:32.060Z,140.33
2022-10-20T10:26:02.185Z,131.73
2022-10-20T10:28:33.952Z,135.57
2022-10-20T10:31:25.670Z,147.33
2022-10-20T10:33:57.092Z,140.80
2022-10-20T10:36:32.063Z,136.17
2022-10-20T10:39:01.405Z,139.67
2022-10-20T10:41:41.582Z,136.67
2022-10-20T10:44:13.576Z,139.03
2022-10-20T10:49:41.970Z,144.20
2022-10-20T10:52:18.785Z,145.03
2022-10-20T10:54:58.577Z,140.67
2022-10-20T10:57:31.971Z,145.77
2022-10-20T11:00:01.412Z,138.40
2022-10-20T11:03:02.754Z,137.80
2022-10-20T11:05:41.111Z,143.33
2022-10-20T11:08:17.248Z,149.47
2022-10-20T11:10:51.869Z,140.33
2022-10-20T11:13:27.044Z,138.60
2022-10-20T11:16:03.048Z,148.50
2022-10-20T11:18:49.734Z,148.63
2022-10-20T11:21:25.306Z,149.07
2022-10-20T11:24:08.113Z,152.13
2022-10-20T11:26:38.853Z,147.97
2022-10-20T11:29:10.361Z,148.47
2022-10-20T11:31:41.869Z,148.20
2022-10-20T11:34:13.800Z,147.23
2022-10-20T11:36:45.289Z,147.73
2022-10-20T11:39:18.673Z,149.03
2022-10-20T11:41:49.539Z,147.47
2022-10-20T11:44:19.499Z,148.80
2022-10-20T11:46:49.846Z,150.77
2022-10-20T11:49:17.594Z,146.53
2022-10-20T11:52:16.828Z,150.83
2022-10-20T11:55:01.484Z,151.63
2022-10-20T11:57:42.325Z,149.13
2022-10-20T12:00:21.738Z,149.57
2022-10-20T12:03:27.177Z,148.37
2022-10-20T12:06:14.443Z,146.13
2022-10-20T12:09:09.914Z,155.80
2022-10-20T12:11:43.036Z,144.77
2022-10-20T12:14:20.368Z,147.87
2022-10-20T12:17:17.779Z,137.53
2022-10-20T12:19:45.458Z,143.00
2022-10-20T12:22:41.652Z,137.50
2022-10-20T12:25:39.484Z,143.67
2022-10-20T12:28:42.186Z,143.37
2022-10-20T12:31:11.200Z,144.23
2022-10-20T12:33:41.824Z,143.80
2022-10-20T12:36:28.670Z,142.50
2022-10-20T12:39:11.066Z,148.43
2022-10-20T12:41:43.326Z,144.70
2022-10-20T12:44:16.682Z,143.97
2022-10-20T12:46:53.884Z,145.57
2022-10-20T12:49:28.299Z,142.60
2022-10-20T12:51:57.987Z,145.97
2022-10-20T12:54:29.753Z,134.40
2022-10-20T12:57:00.524Z,131.40
2022-10-20T12:59:46.506Z,139.87
2022-10-20T13:02:46.305Z,146.23
2022-10-20T13:05:41.874Z,141.00
2022-10-20T13:08:34.315Z,139.43
2022-10-20T13:11:41.800Z,135.47
2022-10-20T13:14:21.922Z,140.43
2022-10-20T13:16:51.697Z,139.90
2022-10-20T13:19:22.638Z,143.07
2022-10-20T13:21:50.641Z,149.67
2022-10-20T13:24:20.624Z,143.97
2022-10-20T13:26:50.605Z,133.57
2022-10-20T13:29:24.208Z,134.97
2022-10-20T13:32:03.724Z,141.47
2022-10-20T13:34:40.065Z,138.97
2022-10-20T13:37:19.157Z,145.00
2022-10-20T13:39:56.321Z,143.47
2022-10-20T13:42:32.111Z,141.37
2022-10-20T13:45:08.530Z,139.27
2022-10-20T13:47:48.484Z,138.67
2022-10-20T13:52:48.805Z,132.40
2022-10-20T13:55:19.781Z,137.70
2022-10-20T13:57:55.332Z,144.43
2022-10-20T14:00:26.463Z,137.67
2022-10-20T14:02:57.332Z,138.17
2022-10-20T14:05:28.027Z,143.67
2022-10-20T14:07:55.908Z,136.83
2022-10-20T14:10:26.384Z,141.70
2022-10-20T14:12:55.226Z,140.43
2022-10-20T14:15:30.665Z,135.27
2022-10-20T14:18:00.778Z,137.27
2022-10-20T14:20:30.746Z,136.30
2022-10-20T14:22:59.789Z,135.47
2022-10-20T14:25:28.480Z,138.10
2022-10-20T14:27:57.161Z,143.07
2022-10-20T14:30:26.547Z,137.27
2022-10-20T14:32:54.860Z,128.23
2022-10-20T14:35:31.741Z,134.73
2022-10-20T14:38:01.805Z,140.47
2022-10-20T14:40:31.940Z,139.17
2022-10-20T14:43:02.424Z,141.90
2022-10-20T14:45:30.258Z,139.50
2022-10-20T14:47:59.847Z,139.43
2022-10-20T14:50:34.937Z,137.43
2022-10-20T14:53:30.674Z,127.30
2022-10-20T14:56:00.577Z,135.10
2022-10-20T14:58:35.524Z,129.03
2022-10-20T15:01:19.428Z,129.30
2022-10-20T15:03:47.182Z,130.87
2022-10-20T15:06:18.175Z,140.10
2022-10-20T15:08:53.865Z,143.30
2022-10-20T15:11:23.493Z,133.57
2022-10-20T15:13:52.777Z,139.47
2022-10-20T15:16:52.071Z,136.33
2022-10-20T15:19:28.074Z,137.03
2022-10-20T15:22:01.279Z,141.07
2022-10-20T15:24:29.496Z,138.67
2022-10-20T15:26:58.057Z,135.87
2022-10-20T15:29:26.330Z,139.13
2022-10-20T15:31:54.781Z,138.73
2022-10-20T15:34:22.461Z,129.73
2022-10-20T15:36:51.130Z,129.90
2022-10-20T15:39:20.322Z,135.97
2022-10-20T15:41:50.246Z,128.70
2022-10-20T15:44:22.429Z,140.03
2022-10-20T15:46:52.238Z,130.30
2022-10-20T15:49:20.524Z,138.27
2022-10-20T15:51:50.358Z,140.57
2022-10-20T15:54:20.538Z,140.17
2022-10-20T15:56:48.749Z,131.73
2022-10-20T15:59:16.740Z,139.90
2022-10-20T16:01:44.348Z,142.63
2022-10-20T16:04:19.230Z,138.43
2022-10-20T16:06:47.133Z,141.37
2022-10-20T16:09:16.164Z,139.27
2022-10-20T16:11:45.886Z,137.83
2022-10-20T16:14:14.140Z,126.43
2022-10-20T16:16:42.048Z,134.90
2022-10-20T16:19:09.697Z,134.67
2022-10-20T16:21:37.342Z,139.47
2022-10-20T16:24:05.239Z,134.13
2022-10-20T16:26:32.964Z,136.03
2022-10-20T16:29:01.958Z,136.77
2022-10-20T16:31:29.917Z,136.60
2022-10-20T16:33:59.793Z,136.13
2022-10-20T16:36:27.452Z,135.27
2022-10-20T16:38:56.462Z,138.07
2022-10-20T16:41:24.210Z,133.13
2022-10-20T16:43:51.845Z,136.20
2022-10-20T16:46:20.832Z,127.67
2022-10-20T16:48:48.526Z,138.67
2022-10-20T16:51:17.489Z,134.03
2022-10-20T16:53:45.437Z,134.97
2022-10-20T16:56:16.590Z,136.43
2022-10-20T16:58:47.654Z,140.73
2022-10-20T17:01:17.512Z,134.93
2022-10-20T17:03:48.445Z,124.07
2022-10-20T17:06:17.290Z,122.83
2022-10-20T17:08:45.197Z,134.77
2022-10-20T17:11:15.158Z,132.40
2022-10-20T17:13:43.010Z,132.70
2022-10-20T17:16:12.693Z,132.63
2022-10-20T17:18:40.437Z,135.20
2022-10-20T17:21:09.832Z,130.23
2022-10-20T17:23:41.814Z,134.67
2022-10-20T17:26:17.539Z,134.80
2022-10-20T17:28:45.948Z,133.13
2022-10-20T17:33:47.708Z,134.53
2022-10-20T17:36:17.098Z,123.93
2022-10-20T17:38:44.749Z,137.87
2022-10-20T17:41:14.382Z,133.47
2022-10-20T17:43:42.290Z,138.83
2022-10-20T17:46:12.074Z,131.17
2022-10-20T17:48:40.344Z,136.93
2022-10-20T17:51:09.469Z,130.60
2022-10-20T17:53:40.209Z,128.20
2022-10-20T17:56:09.154Z,201.07
2022-10-20T17:58:37.312Z,131.40
2022-10-20T18:01:09.590Z,125.90
2022-10-20T18:03:37.265Z,130.67
2022-10-20T18:06:12.810Z,126.33
2022-10-20T18:08:41.858Z,126.53
2022-10-20T18:11:10.486Z,123.63
2022-10-20T18:13:38.866Z,126.73
2022-10-20T18:16:08.264Z,126.07
2022-10-20T18:18:35.986Z,128.47
2022-10-20T18:21:04.249Z,129.17
2022-10-20T18:23:33.329Z,124.07
2022-10-20T18:26:07.623Z,130.37
2022-10-20T18:28:35.709Z,127.47
2022-10-20T18:31:07.149Z,132.70
2022-10-20T18:33:34.879Z,125.50
2022-10-20T18:36:04.241Z,130.47
2022-10-20T18:38:32.300Z,116.63
2022-10-20T18:41:06.702Z,127.33
2022-10-20T18:43:34.395Z,131.43
2022-10-20T18:46:02.862Z,130.23
2022-10-20T18:48:30.649Z,120.67
2022-10-20T18:50:59.624Z,132.67
2022-10-20T18:53:28.173Z,124.53
2022-10-20T18:56:00.516Z,119.30
2022-10-20T18:58:30.225Z,122.10
2022-10-20T19:00:59.421Z,122.53
2022-10-20T19:03:31.026Z,112.50
2022-10-20T19:05:59.782Z,120.17
2022-10-20T19:08:27.571Z,125.47
2022-10-20T19:10:55.493Z,119.30
2022-10-20T19:13:25.693Z,125.43
2022-10-20T19:15:54.854Z,123.07
2022-10-20T19:18:23.155Z,127.07
2022-10-20T19:21:01.254Z,126.57
2022-10-20T19:23:31.667Z,124.40
2022-10-20T19:26:03.938Z,124.53
2022-10-20T19:28:32.533Z,120.23
2022-10-20T19:31:01.949Z,119.63
2022-10-20T19:33:30.326Z,128.57
2022-10-20T19:35:58.023Z,125.67
2022-10-20T19:38:25.746Z,124.87
2022-10-20T19:40:54.966Z,127.37
2022-10-20T19:43:22.825Z,130.13
2022-10-20T19:45:50.515Z,126.60
2022-10-20T19:48:21.042Z,120.07
2022-10-20T19:50:48.787Z,122.10
2022-10-20T19:53:16.495Z,125.43
2022-10-20T19:55:47.474Z,122.43
2022-10-20T19:58:15.326Z,129.33
2022-10-20T20:00:44.689Z,88.65
2022-10-20T20:03:12.610Z,69.50
2022-10-20T20:05:41.681Z,98.80
2022-10-20T20:08:09.691Z,101.57
2022-10-20T20:10:37.998Z,86.30
2022-10-20T20:13:05.774Z,104.30
2022-10-20T20:15:33.705Z,99.90
2022-10-20T20:18:01.322Z,100.03
2022-10-20T20:20:29.060Z,101.30
2022-10-20T20:22:58.105Z,98.17
2022-10-20T20:25:25.777Z,103.10
2022-10-20T20:27:54.736Z,103.83
2022-10-20T20:30:22.375Z,100.27
2022-10-20T20:32:53.510Z,93.73
2022-10-20T20:35:21.922Z,101.37
2022-10-20T20:37:49.622Z,103.23
2022-10-20T20:40:19.009Z,106.07
2022-10-20T20:42:46.983Z,106.17
2022-10-20T20:45:15.404Z,103.60
2022-10-20T20:47:43.161Z,106.83
2022-10-20T20:50:11.367Z,100.63
2022-10-20T20:52:39.171Z,111.53
2022-10-20T20:55:07.102Z,104.47
2022-10-20T20:57:36.469Z,110.70
2022-10-20T21:00:04.937Z,106.67
2022-10-20T21:02:32.554Z,106.80
2022-10-20T21:05:00.233Z,112.40
2022-10-20T21:07:27.849Z,108.00
2022-10-20T21:09:55.489Z,100.83
2022-10-20T21:12:23.158Z,111.67
2022-10-20T21:14:52.191Z,108.47
2022-10-20T21:17:19.854Z,99.17
2022-10-20T21:19:47.505Z,112.87
2022-10-20T21:22:15.165Z,111.13
2022-10-20T21:24:42.844Z,107.37
2022-10-20T21:27:10.594Z,101.07
2022-10-20T21:29:39.490Z,110.87
2022-10-20T21:32:11.093Z,105.70
2022-10-20T21:34:38.751Z,109.33
2022-10-20T21:37:06.447Z,105.13
2022-10-20T21:39:34.120Z,100.20
2022-10-20T21:42:01.838Z,108.90
2022-10-20T21:44:29.644Z,111.37
2022-10-20T21:46:57.389Z,107.13
2022-10-20T21:49:26.373Z,107.53
2022-10-20T21:51:55.578Z,111.67
2022-10-20T21:54:24.804Z,107.23
2022-10-20T21:56:53.158Z,113.90
2022-10-20T21:59:22.443Z,93.67
2022-10-20T22:01:50.456Z,100.83
2022-10-20T22:04:19.428Z,110.63
2022-10-20T22:06:54.122Z,112.97
2022-10-20T22:09:22.025Z,114.17
2022-10-20T22:11:51.772Z,100.77
2022-10-20T22:14:19.620Z,109.00
2022-10-20T22:16:47.388Z,113.57
2022-10-20T22:19:16.406Z,111.60
2022-10-20T22:21:45.597Z,110.93
2022-10-20T22:24:15.053Z,111.33
2022-10-20T22:26:43.613Z,115.17
2022-10-20T22:29:11.617Z,110.57
2022-10-20T22:31:40.258Z,106.37
2022-10-20T22:34:08.777Z,112.87
2022-10-20T22:36:36.525Z,112.63
2022-10-20T22:39:04.830Z,111.43
2022-10-20T22:41:33.936Z,113.10
2022-10-20T22:44:01.600Z,114.07
2022-10-20T22:46:29.352Z,108.60
2022-10-20T22:48:59.919Z,102.73
2022-10-20T22:51:27.569Z,112.47
2022-10-20T22:53:55.309Z,102.10
2022-10-20T22:56:23.605Z,109.33
2022-10-20T22:58:54.203Z,117.80
2022-10-20T23:01:24.025Z,104.20
2022-10-20T23:03:52.852Z,112.07
2022-10-20T23:06:22.149Z,109.37
2022-10-20T23:08:52.248Z,116.47
2022-10-20T23:11:20.838Z,96.37
2022-10-20T23:13:49.848Z,115.87
2022-10-20T23:16:19.376Z,112.93
2022-10-20T23:18:47.167Z,118.07
2022-10-20T23:21:15.270Z,105.03
2022-10-20T23:23:43.080Z,101.93
2022-10-20T23:26:11.010Z,115.37
2022-10-20T23:28:39.540Z,106.77
2022-10-20T23:31:09.240Z,112.80
2022-10-20T23:33:38.547Z,108.07
2022-10-20T23:36:06.694Z,114.60
2022-10-20T23:38:34.405Z,102.97
2022-10-20T23:41:02.077Z,103.90
2022-10-20T23:43:29.731Z,108.23
2022-10-20T23:45:57.469Z,103.47
2022-10-20T23:48:25.209Z,109.77
2022-10-20T23:50:54.445Z,114.03
2022-10-20T23:53:22.114Z,112.80
2022-10-20T23:55:49.753Z,109.83
2022-10-20T23:58:20.973Z,114.03
